Forest fire From: 18-06-2018 11:00 Until: 19-06-2018 10:14 warning for: Forest fire Level: Yellow info button
suomi:
Metsäpalovaroitus on voimassa.

svenska:
Varning för skogsbrand gäller.

english:
A forest fire warning is in force. 


Thunder radar more information blitzortung!


Löydät sääaseman tiedot myös:

European Weather Network

Finland Weather Exchange

Weather Underground

AWEKAS



Weather Underground säähistoriasivu

Päivittäin yhteenveto Helmikuu 27, 2017 Yksiköt:  Molemmat    Englantilaiset   Metriset
« Edellinen Päivä
Seuraava Päivä »
Päivittäin Viikoittain Kuukausittain Vuosittain Mukautettu
  Korkea: Matala: Keskiarvo:
Lämpötila: TemperatureC °F /  -17.8 °C -18.7 °F /  -28.2 °C -10.1 °F /  -23.4 °C
Kastepiste: DewpointC °F /  -17.8 °C -20.4 °F /  -29.1 °C -11.8 °F /  -24.3 °C
Kosteus: Humidity % 78 % 87 %
Tuulen nopeus: WindSpeedKMH mph /  0 km/h - 1.1 mph /  1.8 km/h
Tuulenpuuska: WindSpeedGustKMH mph /  0 km/h - -
Tuuli:- - SSE
Ilmanpaine: PressurehPa in /  0 hPa 996.5 in /  33741.5 hPa -
Sade: 0.0 in /  0 mm    
Historical Graphs
 
 
Taulukkotiedot Helmikuu 27, 2017
Aika Lämpötila Kastepiste Ilmanpaine Tuuli Tuulen nopeus Tuulenpuuska Kosteus Sademäärä (tunneittain)
TemperatureC °F /  -17.8 °C DewpointC °F /  -17.8 °C PressurehPa in /  0 hPa Calm     Humidity % HourlyPrecipMM in /  0 mm
00:00 -14.0 °F /  -25.6 °C -15.4 °F /  -26.3 °C 999.9 in /  33856.6 hPa Calm     89 % 0.0 in /  0 mm
00:15 -14.4 °F /  -25.8 °C -16.0 °F /  -26.7 °C 999.9 in /  33856.6 hPa Calm     88 % 0.0 in /  0 mm
00:30 -14.8 °F /  -26 °C -16.4 °F /  -26.9 °C 1000.2 in /  33866.8 hPa Calm     88 % 0.0 in /  0 mm
00:45 -15.2 °F /  -26.2 °C -16.8 °F /  -27.1 °C 1000.2 in /  33866.8 hPa Calm     88 % 0.0 in /  0 mm
01:00 -15.7 °F /  -26.5 °C -17.3 °F /  -27.4 °C 1000.2 in /  33866.8 hPa Calm     88 % 0.0 in /  0 mm
01:15 -15.9 °F /  -26.6 °C -17.4 °F /  -27.4 °C 1000.2 in /  33866.8 hPa Calm     88 % 0.0 in /  0 mm
01:30 -16.1 °F /  -26.7 °C -17.6 °F /  -27.6 °C 1000.2 in /  33866.8 hPa Calm     88 % 0.0 in /  0 mm
01:45 -16.4 °F /  -26.9 °C -17.9 °F /  -27.7 °C 1000.6 in /  33880.3 hPa Calm     88 % 0.0 in /  0 mm
02:00 -16.4 °F /  -26.9 °C -18.0 °F /  -27.8 °C 1000.6 in /  33880.3 hPa Calm     88 % 0.0 in /  0 mm
02:15 -16.2 °F /  -26.8 °C -17.6 °F /  -27.6 °C 1000.9 in /  33890.5 hPa Calm     89 % 0.0 in /  0 mm
02:30 -16.0 °F /  -26.7 °C -17.4 °F /  -27.4 °C 1000.6 in /  33880.3 hPa Calm     89 % 0.0 in /  0 mm
02:45 -16.1 °F /  -26.7 °C -17.6 °F /  -27.6 °C 1000.9 in /  33890.5 hPa Calm     88 % 0.0 in /  0 mm
03:00 -16.3 °F /  -26.8 °C -17.9 °F /  -27.7 °C 1000.9 in /  33890.5 hPa Calm     88 % 0.0 in /  0 mm
03:15 -16.4 °F /  -26.9 °C -18.0 °F /  -27.8 °C 1001.2 in /  33900.6 hPa Calm     88 % 0.0 in /  0 mm
03:30 -16.7 °F /  -27.1 °C -18.2 °F /  -27.9 °C 1000.9 in /  33890.5 hPa Calm     88 % 0.0 in /  0 mm
03:45 -17.0 °F /  -27.2 °C -18.6 °F /  -28.1 °C 1001.6 in /  33914.2 hPa Calm     87 % 0.0 in /  0 mm
04:00 -17.2 °F /  -27.3 °C -18.8 °F /  -28.2 °C 1001.6 in /  33914.2 hPa Calm     87 % 0.0 in /  0 mm
04:15 -17.2 °F /  -27.3 °C -18.7 °F /  -28.2 °C 1001.6 in /  33914.2 hPa Calm     88 % 0.0 in /  0 mm
04:30 -17.6 °F /  -27.6 °C -19.2 °F /  -28.4 °C 1001.9 in /  33924.3 hPa Calm     87 % 0.0 in /  0 mm
04:45 -17.7 °F /  -27.6 °C -19.4 °F /  -28.6 °C 1001.9 in /  33924.3 hPa Calm     87 % 0.0 in /  0 mm
05:00 -17.9 °F /  -27.7 °C -19.6 °F /  -28.7 °C 1001.9 in /  33924.3 hPa Calm     87 % 0.0 in /  0 mm
05:15 -18.2 °F /  -27.9 °C -20.0 °F /  -28.9 °C 1001.9 in /  33924.3 hPa Calm     86 % 0.0 in /  0 mm
05:30 -18.4 °F /  -28 °C -20.2 °F /  -29 °C 1001.9 in /  33924.3 hPa Calm     86 % 0.0 in /  0 mm
05:45 -18.6 °F /  -28.1 °C -20.3 °F /  -29.1 °C 1001.9 in /  33924.3 hPa Calm     86 % 0.0 in /  0 mm
06:00 -18.6 °F /  -28.1 °C -20.2 °F /  -29 °C 1002.3 in /  33937.9 hPa Calm     87 % 0.0 in /  0 mm
06:15 -18.5 °F /  -28.1 °C -20.0 °F /  -28.9 °C 1001.9 in /  33924.3 hPa Calm     88 % 0.0 in /  0 mm
06:30 -18.4 °F /  -28 °C -20.1 °F /  -28.9 °C 1001.9 in /  33924.3 hPa Calm     87 % 0.0 in /  0 mm
06:45 -18.6 °F /  -28.1 °C -20.4 °F /  -29.1 °C 1001.9 in /  33924.3 hPa Calm     86 % 0.0 in /  0 mm
07:00 -18.6 °F /  -28.1 °C -20.2 °F /  -29 °C 1002.3 in /  33937.9 hPa Calm     87 % 0.0 in /  0 mm
07:15 -18.7 °F /  -28.2 °C -20.3 °F /  -29.1 °C 1002.3 in /  33937.9 hPa Calm     87 % 0.0 in /  0 mm
07:30 -18.7 °F /  -28.2 °C -20.3 °F /  -29.1 °C 1002.3 in /  33937.9 hPa Calm     87 % 0.0 in /  0 mm
07:45 -18.6 °F /  -28.1 °C -20.2 °F /  -29 °C 1001.9 in /  33924.3 hPa Calm     87 % 0.0 in /  0 mm
08:00 -18.7 °F /  -28.2 °C -20.3 °F /  -29.1 °C 1001.9 in /  33924.3 hPa Calm     87 % 0.0 in /  0 mm
08:15 -18.7 °F /  -28.2 °C -20.3 °F /  -29.1 °C 1002.3 in /  33937.9 hPa Calm     87 % 0.0 in /  0 mm
08:30 -18.6 °F /  -28.1 °C -20.2 °F /  -29 °C 1002.3 in /  33937.9 hPa Calm     87 % 0.0 in /  0 mm
08:45 -18.4 °F /  -28 °C -19.9 °F /  -28.8 °C 1002.3 in /  33937.9 hPa Calm     88 % 0.0 in /  0 mm
09:00 -18.1 °F /  -27.8 °C -19.6 °F /  -28.7 °C 1002.3 in /  33937.9 hPa Calm     88 % 0.0 in /  0 mm
09:15 -17.8 °F /  -27.7 °C -19.3 °F /  -28.5 °C 1002.3 in /  33937.9 hPa Calm     88 % 0.0 in /  0 mm
09:30 -17.6 °F /  -27.6 °C -19.1 °F /  -28.4 °C 1002.3 in /  33937.9 hPa Calm     88 % 0.0 in /  0 mm
09:45 -16.0 °F /  -26.7 °C -17.0 °F /  -27.2 °C 1002.6 in /  33948 hPa WNW 1.6 mph /  2.6 km/h 4.8 mph /  7.7 km/h 92 % 0.0 in /  0 mm
10:00 -14.0 °F /  -25.6 °C -14.9 °F /  -26.1 °C 1002.6 in /  33948 hPa WSW 1.6 mph /  2.6 km/h 4.8 mph /  7.7 km/h 93 % 0.0 in /  0 mm
10:15 -12.8 °F /  -24.9 °C -13.7 °F /  -25.4 °C 1002.6 in /  33948 hPa SSW 1.6 mph /  2.6 km/h 3.2 mph /  5.1 km/h 93 % 0.0 in /  0 mm
10:30 -12.6 °F /  -24.8 °C -13.9 °F /  -25.5 °C 1002.6 in /  33948 hPa Calm   3.2 mph /  5.1 km/h 90 % 0.0 in /  0 mm
10:45 -12.7 °F /  -24.8 °C -14.0 °F /  -25.6 °C 1002.6 in /  33948 hPa Calm   3.2 mph /  5.1 km/h 90 % 0.0 in /  0 mm
11:00 -12.1 °F /  -24.5 °C -13.3 °F /  -25.2 °C 1002.3 in /  33937.9 hPa Calm     91 % 0.0 in /  0 mm
11:15 -11.1 °F /  -23.9 °C -12.1 °F /  -24.5 °C 1002.3 in /  33937.9 hPa Calm   4.8 mph /  7.7 km/h 92 % 0.0 in /  0 mm
11:30 -10.2 °F /  -23.4 °C -11.3 °F /  -24.1 °C 1002.3 in /  33937.9 hPa Calm   4.8 mph /  7.7 km/h 92 % 0.0 in /  0 mm
11:45 -9.4 °F /  -23 °C -10.6 °F /  -23.7 °C 1002.3 in /  33937.9 hPa Calm   4.8 mph /  7.7 km/h 91 % 0.0 in /  0 mm
12:00 -8.8 °F /  -22.7 °C -10.1 °F /  -23.4 °C 1002.3 in /  33937.9 hPa SSE 3.2 mph /  5.1 km/h 8.0 mph /  12.9 km/h 90 % 0.0 in /  0 mm
12:15 -8.2 °F /  -22.3 °C -9.5 °F /  -23.1 °C 1001.9 in /  33924.3 hPa Calm   6.4 mph /  10.3 km/h 90 % 0.0 in /  0 mm
12:30 -7.6 °F /  -22 °C -9.3 °F /  -22.9 °C 1001.9 in /  33924.3 hPa SSE 1.6 mph /  2.6 km/h 8.0 mph /  12.9 km/h 88 % 0.0 in /  0 mm
12:45 -7.2 °F /  -21.8 °C -9.0 °F /  -22.8 °C 1002.3 in /  33937.9 hPa SSE 1.6 mph /  2.6 km/h 8.0 mph /  12.9 km/h 87 % 0.0 in /  0 mm
13:00 -6.9 °F /  -21.6 °C -8.9 °F /  -22.7 °C 1001.9 in /  33924.3 hPa SSE 3.2 mph /  5.1 km/h 9.7 mph /  15.6 km/h 86 % 0.0 in /  0 mm
13:15 -6.7 °F /  -21.5 °C -8.8 °F /  -22.7 °C 1001.9 in /  33924.3 hPa South 3.2 mph /  5.1 km/h 8.0 mph /  12.9 km/h 85 % 0.0 in /  0 mm
13:30 -6.4 °F /  -21.3 °C -8.6 °F /  -22.6 °C 1002.3 in /  33937.9 hPa SE 1.6 mph /  2.6 km/h 8.0 mph /  12.9 km/h 85 % 0.0 in /  0 mm
13:45 -6.2 °F /  -21.2 °C -8.5 °F /  -22.5 °C 1001.9 in /  33924.3 hPa South 1.6 mph /  2.6 km/h 11.3 mph /  18.2 km/h 84 % 0.0 in /  0 mm
14:00 -5.8 °F /  -21 °C -8.1 °F /  -22.3 °C 1001.6 in /  33914.2 hPa SE 1.6 mph /  2.6 km/h 12.9 mph /  20.8 km/h 84 % 0.0 in /  0 mm
14:15 -5.5 °F /  -20.8 °C -7.9 °F /  -22.2 °C 1001.6 in /  33914.2 hPa SSE 1.6 mph /  2.6 km/h 9.7 mph /  15.6 km/h 83 % 0.0 in /  0 mm
14:30 -5.3 °F /  -20.7 °C -7.6 °F /  -22 °C 1001.6 in /  33914.2 hPa Calm   3.2 mph /  5.1 km/h 84 % 0.0 in /  0 mm
14:45 -5.2 °F /  -20.7 °C -7.4 °F /  -21.9 °C 1001.6 in /  33914.2 hPa Calm   3.2 mph /  5.1 km/h 84 % 0.0 in /  0 mm
15:00 -5.0 °F /  -20.6 °C -7.3 °F /  -21.8 °C 1001.6 in /  33914.2 hPa Calm     84 % 0.0 in /  0 mm
15:15 -4.8 °F /  -20.4 °C -7.1 °F /  -21.7 °C 1001.2 in /  33900.6 hPa Calm   6.4 mph /  10.3 km/h 84 % 0.0 in /  0 mm
15:30 -4.5 °F /  -20.3 °C -7.3 °F /  -21.8 °C 1001.2 in /  33900.6 hPa South 1.6 mph /  2.6 km/h 8.0 mph /  12.9 km/h 81 % 0.0 in /  0 mm
15:45 -4.2 °F /  -20.1 °C -7.0 °F /  -21.7 °C 1000.9 in /  33890.5 hPa Calm   12.9 mph /  20.8 km/h 81 % 0.0 in /  0 mm
16:00 -3.8 °F /  -19.9 °C -6.8 °F /  -21.6 °C 1000.6 in /  33880.3 hPa SSE 1.6 mph /  2.6 km/h 11.3 mph /  18.2 km/h 80 % 0.0 in /  0 mm
16:15 -3.7 °F /  -19.8 °C -6.9 °F /  -21.6 °C 1000.6 in /  33880.3 hPa South 3.2 mph /  5.1 km/h 14.5 mph /  23.3 km/h 78 % 0.0 in /  0 mm
16:30 -3.8 °F /  -19.9 °C -6.9 °F /  -21.6 °C 1000.2 in /  33866.8 hPa Calm   6.4 mph /  10.3 km/h 79 % 0.0 in /  0 mm
16:45 -3.9 °F /  -19.9 °C -6.8 °F /  -21.6 °C 999.9 in /  33856.6 hPa SSE 1.6 mph /  2.6 km/h 9.7 mph /  15.6 km/h 80 % 0.0 in /  0 mm
17:00 -4.0 °F /  -20 °C -6.9 °F /  -21.6 °C 999.9 in /  33856.6 hPa SE 1.6 mph /  2.6 km/h 8.0 mph /  12.9 km/h 80 % 0.0 in /  0 mm
17:15 -4.1 °F /  -20.1 °C -6.8 °F /  -21.6 °C 999.5 in /  33843.1 hPa SSE 3.2 mph /  5.1 km/h 11.3 mph /  18.2 km/h 81 % 0.0 in /  0 mm
17:30 -3.9 °F /  -19.9 °C -6.9 °F /  -21.6 °C 999.5 in /  33843.1 hPa SSE 1.6 mph /  2.6 km/h 12.9 mph /  20.8 km/h 80 % 0.0 in /  0 mm
17:45 -3.8 °F /  -19.9 °C -6.7 °F /  -21.5 °C 999.5 in /  33843.1 hPa SSE 1.6 mph /  2.6 km/h 9.7 mph /  15.6 km/h 80 % 0.0 in /  0 mm
18:00 -3.9 °F /  -19.9 °C -6.7 °F /  -21.5 °C 999.2 in /  33832.9 hPa SSE 3.2 mph /  5.1 km/h 14.5 mph /  23.3 km/h 81 % 0.0 in /  0 mm
18:15 -3.9 °F /  -19.9 °C -6.5 °F /  -21.4 °C 999.2 in /  33832.9 hPa SSE 3.2 mph /  5.1 km/h 11.3 mph /  18.2 km/h 82 % 0.0 in /  0 mm
18:30 -3.9 °F /  -19.9 °C -6.4 °F /  -21.3 °C 998.9 in /  33822.8 hPa SE 1.6 mph /  2.6 km/h 11.3 mph /  18.2 km/h 83 % 0.0 in /  0 mm
18:45 -3.7 °F /  -19.8 °C -6.0 °F /  -21.1 °C 998.9 in /  33822.8 hPa SSE 1.6 mph /  2.6 km/h 12.9 mph /  20.8 km/h 84 % 0.0 in /  0 mm
19:00 -3.6 °F /  -19.8 °C -5.7 °F /  -20.9 °C 998.5 in /  33809.2 hPa SSE 3.2 mph /  5.1 km/h 17.7 mph /  28.5 km/h 85 % 0.0 in /  0 mm
19:15 -3.5 °F /  -19.7 °C -5.4 °F /  -20.8 °C 998.9 in /  33822.8 hPa SSE 1.6 mph /  2.6 km/h 14.5 mph /  23.3 km/h 87 % 0.0 in /  0 mm
19:30 -3.5 °F /  -19.7 °C -5.1 °F /  -20.6 °C 998.9 in /  33822.8 hPa SSE 1.6 mph /  2.6 km/h 9.7 mph /  15.6 km/h 89 % 0.0 in /  0 mm
19:45 -3.4 °F /  -19.7 °C -4.8 °F /  -20.4 °C 998.2 in /  33799.1 hPa SSE 3.2 mph /  5.1 km/h 12.9 mph /  20.8 km/h 90 % 0.0 in /  0 mm
20:00 -3.3 °F /  -19.6 °C -4.6 °F /  -20.3 °C 998.2 in /  33799.1 hPa SSE 3.2 mph /  5.1 km/h 12.9 mph /  20.8 km/h 91 % 0.0 in /  0 mm
20:15 -3.2 °F /  -19.6 °C -4.4 °F /  -20.2 °C 997.9 in /  33788.9 hPa South 3.2 mph /  5.1 km/h 11.3 mph /  18.2 km/h 91 % 0.0 in /  0 mm
20:30 -3.0 °F /  -19.4 °C -4.3 °F /  -20.2 °C 997.9 in /  33788.9 hPa South 4.8 mph /  7.7 km/h 11.3 mph /  18.2 km/h 91 % 0.0 in /  0 mm
20:45 -3.0 °F /  -19.4 °C -4.3 °F /  -20.2 °C 997.9 in /  33788.9 hPa South 1.6 mph /  2.6 km/h 14.5 mph /  23.3 km/h 91 % 0.0 in /  0 mm
21:00 -2.9 °F /  -19.4 °C -4.1 °F /  -20.1 °C 997.9 in /  33788.9 hPa SSE 3.2 mph /  5.1 km/h 12.9 mph /  20.8 km/h 92 % 0.0 in /  0 mm
21:15 -3.0 °F /  -19.4 °C -4.0 °F /  -20 °C 997.5 in /  33775.4 hPa SSE 1.6 mph /  2.6 km/h 12.9 mph /  20.8 km/h 93 % 0.0 in /  0 mm
21:30 -2.9 °F /  -19.4 °C -3.9 °F /  -19.9 °C 997.5 in /  33775.4 hPa South 1.6 mph /  2.6 km/h 9.7 mph /  15.6 km/h 93 % 0.0 in /  0 mm
21:45 -2.9 °F /  -19.4 °C -3.8 °F /  -19.9 °C 997.2 in /  33765.2 hPa South 1.6 mph /  2.6 km/h 11.3 mph /  18.2 km/h 94 % 0.0 in /  0 mm
22:00 -2.8 °F /  -19.3 °C -3.6 °F /  -19.8 °C 997.2 in /  33765.2 hPa SSE 1.6 mph /  2.6 km/h 9.7 mph /  15.6 km/h 94 % 0.0 in /  0 mm
22:15 -2.6 °F /  -19.2 °C -3.4 °F /  -19.7 °C 997.2 in /  33765.2 hPa South 3.2 mph /  5.1 km/h 14.5 mph /  23.3 km/h 94 % 0.0 in /  0 mm
22:30 -2.3 °F /  -19.1 °C -3.1 °F /  -19.5 °C 996.8 in /  33751.6 hPa SSE 3.2 mph /  5.1 km/h 16.1 mph /  25.9 km/h 94 % 0.0 in /  0 mm
22:45 -2.1 °F /  -18.9 °C -2.9 °F /  -19.4 °C 996.8 in /  33751.6 hPa South 4.8 mph /  7.7 km/h 16.1 mph /  25.9 km/h 94 % 0.0 in /  0 mm
23:00 -1.9 °F /  -18.8 °C -2.7 °F /  -19.3 °C 996.8 in /  33751.6 hPa South 3.2 mph /  5.1 km/h 11.3 mph /  18.2 km/h 94 % 0.0 in /  0 mm
23:15 -1.8 °F /  -18.8 °C -2.6 °F /  -19.2 °C 996.8 in /  33751.6 hPa SSW 3.2 mph /  5.1 km/h 9.7 mph /  15.6 km/h 94 % 0.0 in /  0 mm
23:30 -1.7 °F /  -18.7 °C -2.5 °F /  -19.2 °C 996.8 in /  33751.6 hPa SSW 1.6 mph /  2.6 km/h 6.4 mph /  10.3 km/h 94 % 0.0 in /  0 mm
23:45 -1.6 °F /  -18.7 °C -2.4 °F /  -19.1 °C 996.5 in /  33741.5 hPa SSE 3.2 mph /  5.1 km/h 16.1 mph /  25.9 km/h 94 % 0.0 in /  0 mm
Esan sääasema
Terveisin Weather Underground - 2.75 mb

Alkuperäinen skripti  Jim McMurry - jmcmurry@mwt.net Sovitettu myös templatelle  Wim van der Kuil - Leuven-Template.eu

Laitteet joita käytämme:

Sääasema
Davis VP2

Sääasemaohjelma
Cumulus

Sääaseman tietokone
Asus EeePC

Palveluntarjoaja
Suncomet

Davis VP2

Cumulus

Asus EeePC

Suncomet